AFR6813 SBRF-GOOY
Flight info
| Callsign | AFR6813 |
|---|---|
| Flight time | 3h 50m |
| Altitude | 41000 |
| Route | FNR UN857 KOPDU DCT 04N026W 08N023W DCT TURUP UA302 PIVSA |
| Aircraft | B742/H-SDFHIRWXY/L |
Departure
| Time | 2026-04-18 05:13 |
|---|---|
| Airport | Recife/Guararapes - Gilberto Freyre International Airport (SBRF) |
Arrival
| Time | 2026-04-18 09:04 |
|---|---|
| Airport | Léopold Sédar Senghor International Airport (GOOY) |
| Time | Latitude | Longitude | Altitude | Speed | Heading |
|---|---|---|---|---|---|
| 2026-04-18 04:58 | -8.12728 | -34.92032 | 48 ft | 0 kts | 304° |
| 2026-04-18 05:05 | -8.12732 | -34.92026 | 47 ft | 2 kts | 304° |
| 2026-04-18 05:06 | -8.12740 | -34.92014 | 47 ft | 2 kts | 304° |
| 2026-04-18 05:06 | -8.12749 | -34.92001 | 47 ft | 2 kts | 304° |
| 2026-04-18 05:06 | -8.12754 | -34.91993 | 48 ft | 2 kts | 303° |
| 2026-04-18 05:06 | -8.12760 | -34.91979 | 48 ft | 2 kts | 276° |
| 2026-04-18 05:07 | -8.12758 | -34.91964 | 48 ft | 2 kts | 252° |
| 2026-04-18 05:07 | -8.12751 | -34.91951 | 48 ft | 2 kts | 229° |
| 2026-04-18 05:07 | -8.12743 | -34.91944 | 48 ft | 0 kts | 214° |
| 2026-04-18 05:09 | -8.12756 | -34.91954 | 48 ft | 6 kts | 213° |
| 2026-04-18 05:09 | -8.12831 | -34.92002 | 47 ft | 16 kts | 214° |
| 2026-04-18 05:10 | -8.12855 | -34.92083 | 47 ft | 10 kts | 300° |
| 2026-04-18 05:10 | -8.12745 | -34.92136 | 47 ft | 27 kts | 340° |
| 2026-04-18 05:10 | -8.12514 | -34.92215 | 47 ft | 38 kts | 342° |
| 2026-04-18 05:10 | -8.12264 | -34.92295 | 47 ft | 36 kts | 341° |
| 2026-04-18 05:11 | -8.12034 | -34.92373 | 48 ft | 33 kts | 341° |
| 2026-04-18 05:11 | -8.11803 | -34.92449 | 46 ft | 36 kts | 342° |
| 2026-04-18 05:11 | -8.11565 | -34.92551 | 43 ft | 38 kts | 324° |
| 2026-04-18 05:11 | -8.11433 | -34.92657 | 40 ft | 19 kts | 307° |
| 2026-04-18 05:12 | -8.11458 | -34.92704 | 41 ft | 8 kts | 175° |
| 2026-04-18 05:12 | -8.11678 | -34.92635 | 45 ft | 61 kts | 161° |
| 2026-04-18 05:12 | -8.12269 | -34.92439 | 48 ft | 116 kts | 161° |
| 2026-04-18 05:12 | -8.13195 | -34.92134 | 52 ft | 163 kts | 162° |
| 2026-04-18 05:13 | -8.14371 | -34.91753 | 377 ft | 177 kts | 161° |
| 2026-04-18 05:13 | -8.15535 | -34.91377 | 934 ft | 177 kts | 160° |
| 2026-04-18 05:13 | -8.16705 | -34.90997 | 1494 ft | 177 kts | 160° |
| 2026-04-18 05:13 | -8.17804 | -34.90545 | 1980 ft | 164 kts | 142° |
| 2026-04-18 05:14 | -8.18425 | -34.89627 | 2177 ft | 162 kts | 94° |
| 2026-04-18 05:14 | -8.18136 | -34.88531 | 2280 ft | 170 kts | 59° |
| 2026-04-18 05:14 | -8.17426 | -34.87532 | 2376 ft | 178 kts | 62° |
| 2026-04-18 05:14 | -8.16975 | -34.86368 | 2477 ft | 182 kts | 82° |
| 2026-04-18 05:15 | -8.16664 | -34.85080 | 2572 ft | 194 kts | 70° |
| 2026-04-18 05:15 | -8.16018 | -34.83881 | 2673 ft | 207 kts | 64° |
| 2026-04-18 05:15 | -8.15317 | -34.82567 | 2770 ft | 219 kts | 65° |
| 2026-04-18 05:15 | -8.14582 | -34.81161 | 2849 ft | 234 kts | 65° |
| 2026-04-18 05:16 | -8.13789 | -34.79653 | 2937 ft | 250 kts | 65° |
| 2026-04-18 05:16 | -8.12939 | -34.78041 | 3080 ft | 266 kts | 64° |
| 2026-04-18 05:16 | -8.12068 | -34.76394 | 3660 ft | 265 kts | 64° |
| 2026-04-18 05:16 | -8.11205 | -34.74762 | 4168 ft | 266 kts | 64° |
| 2026-04-18 05:17 | -8.10323 | -34.73094 | 4621 ft | 269 kts | 64° |
| 2026-04-18 05:17 | -8.09407 | -34.71436 | 5075 ft | 272 kts | 60° |
| 2026-04-18 05:17 | -8.08379 | -34.69845 | 5557 ft | 273 kts | 57° |
| 2026-04-18 05:17 | -8.07273 | -34.68282 | 6005 ft | 276 kts | 56° |
| 2026-04-18 05:18 | -8.06110 | -34.66699 | 6444 ft | 279 kts | 55° |
| 2026-04-18 05:18 | -8.04950 | -34.65140 | 6890 ft | 280 kts | 54° |
| 2026-04-18 05:18 | -8.03768 | -34.63555 | 7329 ft | 282 kts | 54° |
| 2026-04-18 05:18 | -8.02577 | -34.61962 | 7768 ft | 284 kts | 54° |
| 2026-04-18 05:19 | -8.01384 | -34.60367 | 8215 ft | 286 kts | 54° |
| 2026-04-18 05:19 | -8.00182 | -34.58758 | 8633 ft | 288 kts | 54° |
| 2026-04-18 05:19 | -7.98972 | -34.57137 | 9046 ft | 291 kts | 53° |
| 2026-04-18 05:19 | -7.97743 | -34.55494 | 9466 ft | 293 kts | 53° |
| 2026-04-18 05:20 | -7.96525 | -34.53864 | 9923 ft | 294 kts | 53° |
| 2026-04-18 05:20 | -7.95683 | -34.52741 | 10026 ft | 303 kts | 53° |
| 2026-04-18 05:21 | -7.89654 | -34.48177 | 10443 ft | 350 kts | 28° |
| 2026-04-18 05:21 | -7.87457 | -34.47036 | 10567 ft | 363 kts | 27° |
| 2026-04-18 05:21 | -7.85132 | -34.45849 | 10689 ft | 378 kts | 27° |
| 2026-04-18 05:21 | -7.82728 | -34.44622 | 10833 ft | 391 kts | 27° |
| 2026-04-18 05:22 | -7.80310 | -34.43386 | 11356 ft | 392 kts | 27° |
| 2026-04-18 05:22 | -7.77847 | -34.42126 | 11927 ft | 392 kts | 27° |
| 2026-04-18 05:22 | -7.75431 | -34.40888 | 12355 ft | 396 kts | 27° |
| 2026-04-18 05:22 | -7.72942 | -34.39613 | 12816 ft | 399 kts | 27° |
| 2026-04-18 05:23 | -7.70443 | -34.38332 | 13247 ft | 402 kts | 27° |
| 2026-04-18 05:23 | -7.67932 | -34.37047 | 13701 ft | 405 kts | 27° |
| 2026-04-18 05:23 | -7.65398 | -34.35749 | 14170 ft | 407 kts | 27° |
| 2026-04-18 05:23 | -7.62852 | -34.34446 | 14599 ft | 411 kts | 27° |
| 2026-04-18 05:24 | -7.60285 | -34.33132 | 15094 ft | 412 kts | 27° |
| 2026-04-18 05:24 | -7.57701 | -34.31809 | 15556 ft | 414 kts | 27° |
| 2026-04-18 05:24 | -7.55105 | -34.30480 | 16010 ft | 417 kts | 27° |
| 2026-04-18 05:24 | -7.52504 | -34.29148 | 16446 ft | 420 kts | 27° |
| 2026-04-18 05:25 | -7.49867 | -34.27799 | 16853 ft | 423 kts | 27° |
| 2026-04-18 05:25 | -7.47260 | -34.26465 | 17311 ft | 425 kts | 27° |
| 2026-04-18 05:25 | -7.44578 | -34.25092 | 17764 ft | 427 kts | 27° |
| 2026-04-18 05:25 | -7.41930 | -34.23738 | 18189 ft | 429 kts | 27° |
| 2026-04-18 05:26 | -7.39239 | -34.22361 | 18638 ft | 430 kts | 27° |
| 2026-04-18 05:26 | -7.36573 | -34.20998 | 19118 ft | 431 kts | 27° |
| 2026-04-18 05:26 | -7.33873 | -34.19617 | 19524 ft | 434 kts | 27° |
| 2026-04-18 05:26 | -7.31177 | -34.18239 | 19956 ft | 435 kts | 26° |
| 2026-04-18 05:27 | -7.28463 | -34.16852 | 20345 ft | 437 kts | 26° |
| 2026-04-18 05:27 | -7.25716 | -34.15448 | 20770 ft | 438 kts | 26° |
| 2026-04-18 05:27 | -7.23008 | -34.14065 | 21178 ft | 440 kts | 27° |
| 2026-04-18 05:27 | -7.20239 | -34.12650 | 21495 ft | 443 kts | 26° |
| 2026-04-18 05:28 | -7.17491 | -34.11246 | 21881 ft | 444 kts | 26° |
| 2026-04-18 05:28 | -7.14740 | -34.09840 | 22218 ft | 447 kts | 26° |
| 2026-04-18 05:28 | -7.11928 | -34.08404 | 22570 ft | 448 kts | 26° |
| 2026-04-18 05:28 | -7.09133 | -34.06976 | 22859 ft | 451 kts | 26° |
| 2026-04-18 05:29 | -7.06329 | -34.05544 | 23162 ft | 454 kts | 26° |
| 2026-04-18 05:29 | -7.03469 | -34.04083 | 23469 ft | 456 kts | 26° |
| 2026-04-18 05:29 | -7.00655 | -34.02647 | 23774 ft | 458 kts | 26° |
| 2026-04-18 05:29 | -6.97777 | -34.01177 | 24065 ft | 460 kts | 26° |
| 2026-04-18 05:30 | -6.94914 | -33.99716 | 24287 ft | 463 kts | 27° |
| 2026-04-18 05:30 | -6.92039 | -33.98248 | 24585 ft | 464 kts | 26° |
| 2026-04-18 05:30 | -6.89132 | -33.96765 | 24868 ft | 466 kts | 26° |
| 2026-04-18 05:30 | -6.86237 | -33.95287 | 25106 ft | 468 kts | 26° |
| 2026-04-18 05:31 | -6.83294 | -33.93786 | 25307 ft | 471 kts | 26° |
| 2026-04-18 05:31 | -6.80358 | -33.92289 | 25608 ft | 472 kts | 27° |
| 2026-04-18 05:31 | -6.77422 | -33.90791 | 25853 ft | 474 kts | 26° |
| 2026-04-18 05:31 | -6.74453 | -33.89277 | 26047 ft | 477 kts | 26° |
| 2026-04-18 05:32 | -6.71519 | -33.87781 | 26247 ft | 479 kts | 26° |
| 2026-04-18 05:32 | -6.68503 | -33.86243 | 26475 ft | 481 kts | 26° |
| 2026-04-18 05:32 | -6.65501 | -33.84713 | 26687 ft | 482 kts | 26° |
| 2026-04-18 05:32 | -6.62516 | -33.83192 | 26913 ft | 484 kts | 26° |
| 2026-04-18 05:33 | -6.59517 | -33.81664 | 27156 ft | 485 kts | 26° |
| 2026-04-18 05:33 | -6.56463 | -33.80107 | 27311 ft | 487 kts | 26° |
| 2026-04-18 05:33 | -6.53428 | -33.78562 | 27490 ft | 489 kts | 26° |
| 2026-04-18 05:33 | -6.50396 | -33.77018 | 27677 ft | 491 kts | 27° |
| 2026-04-18 05:34 | -6.47336 | -33.75459 | 27902 ft | 492 kts | 27° |
| 2026-04-18 05:34 | -6.44278 | -33.73901 | 28059 ft | 494 kts | 27° |
| 2026-04-18 05:34 | -6.41184 | -33.72326 | 28278 ft | 494 kts | 27° |
| 2026-04-18 05:34 | -6.38118 | -33.70765 | 28385 ft | 497 kts | 27° |
| 2026-04-18 05:35 | -6.34989 | -33.69173 | 28538 ft | 498 kts | 27° |
| 2026-04-18 05:35 | -6.31889 | -33.67594 | 28656 ft | 501 kts | 27° |
| 2026-04-18 05:35 | -6.25636 | -33.64412 | 28771 ft | 508 kts | 26° |
| 2026-04-18 05:36 | -6.22439 | -33.62786 | 28903 ft | 509 kts | 26° |
| 2026-04-18 05:36 | -6.19312 | -33.61195 | 29192 ft | 507 kts | 26° |
| 2026-04-18 05:36 | -6.16155 | -33.59590 | 29532 ft | 504 kts | 26° |
| 2026-04-18 05:36 | -6.12999 | -33.57985 | 29788 ft | 503 kts | 26° |
| 2026-04-18 05:37 | -6.09889 | -33.56403 | 29996 ft | 502 kts | 26° |
| 2026-04-18 05:37 | -6.06765 | -33.54815 | 30202 ft | 502 kts | 27° |
| 2026-04-18 05:37 | -6.03647 | -33.53230 | 30435 ft | 501 kts | 27° |
| 2026-04-18 05:37 | -6.00521 | -33.51642 | 30670 ft | 500 kts | 27° |
| 2026-04-18 05:38 | -5.97405 | -33.50058 | 30865 ft | 499 kts | 27° |
| 2026-04-18 05:38 | -5.94326 | -33.48494 | 31108 ft | 498 kts | 27° |
| 2026-04-18 05:38 | -5.91211 | -33.46910 | 31353 ft | 497 kts | 27° |
| 2026-04-18 05:38 | -5.88124 | -33.45343 | 31502 ft | 497 kts | 27° |
| 2026-04-18 05:39 | -5.85019 | -33.43766 | 31683 ft | 497 kts | 27° |
| 2026-04-18 05:39 | -5.81916 | -33.42190 | 31834 ft | 498 kts | 27° |
| 2026-04-18 05:39 | -5.78818 | -33.40616 | 32046 ft | 497 kts | 27° |
| 2026-04-18 05:39 | -5.75755 | -33.39061 | 32310 ft | 495 kts | 27° |
| 2026-04-18 05:40 | -5.72651 | -33.37484 | 32501 ft | 495 kts | 27° |
| 2026-04-18 05:40 | -5.69603 | -33.35938 | 32672 ft | 495 kts | 27° |
| 2026-04-18 05:40 | -5.66510 | -33.34368 | 32842 ft | 495 kts | 26° |
| 2026-04-18 05:40 | -5.63406 | -33.32793 | 33101 ft | 494 kts | 26° |
| 2026-04-18 05:41 | -5.60362 | -33.31248 | 33359 ft | 493 kts | 26° |
| 2026-04-18 05:41 | -5.57285 | -33.29686 | 33581 ft | 492 kts | 26° |
| 2026-04-18 05:41 | -5.54231 | -33.28137 | 33818 ft | 491 kts | 26° |
| 2026-04-18 05:41 | -5.51145 | -33.26572 | 33998 ft | 492 kts | 26° |
| 2026-04-18 05:42 | -5.48096 | -33.25025 | 34224 ft | 491 kts | 26° |
| 2026-04-18 05:42 | -5.45031 | -33.23471 | 34440 ft | 490 kts | 26° |
| 2026-04-18 05:42 | -5.42019 | -33.21943 | 34592 ft | 490 kts | 26° |
| 2026-04-18 05:42 | -5.38954 | -33.20390 | 34756 ft | 490 kts | 26° |
| 2026-04-18 05:43 | -5.32809 | -33.17274 | 34800 ft | 494 kts | 26° |
| 2026-04-18 05:43 | -5.26645 | -33.14149 | 34794 ft | 492 kts | 26° |
| 2026-04-18 05:44 | -5.20541 | -33.11057 | 34786 ft | 489 kts | 26° |
| 2026-04-18 05:44 | -5.14456 | -33.07973 | 34784 ft | 490 kts | 26° |
| 2026-04-18 05:45 | -5.08332 | -33.04872 | 34780 ft | 492 kts | 26° |
| 2026-04-18 05:45 | -5.02180 | -33.01757 | 34783 ft | 494 kts | 26° |
| 2026-04-18 05:46 | -4.96028 | -32.98641 | 34782 ft | 492 kts | 26° |
| 2026-04-18 05:46 | -4.89873 | -32.95525 | 34780 ft | 492 kts | 26° |
| 2026-04-18 05:47 | -4.83741 | -32.92422 | 34781 ft | 491 kts | 26° |
| 2026-04-18 05:47 | -4.77573 | -32.89302 | 34780 ft | 493 kts | 26° |
| 2026-04-18 05:48 | -4.71428 | -32.86193 | 34781 ft | 494 kts | 26° |
| 2026-04-18 05:48 | -4.65253 | -32.83069 | 34781 ft | 493 kts | 26° |
| 2026-04-18 05:49 | -4.59158 | -32.79987 | 34780 ft | 491 kts | 26° |
| 2026-04-18 05:49 | -4.53039 | -32.76893 | 34781 ft | 491 kts | 26° |
| 2026-04-18 05:50 | -4.46890 | -32.73785 | 34781 ft | 491 kts | 26° |
| 2026-04-18 05:50 | -4.40774 | -32.70694 | 34782 ft | 493 kts | 26° |
| 2026-04-18 05:51 | -4.34637 | -32.67593 | 34780 ft | 494 kts | 26° |
| 2026-04-18 05:51 | -4.28484 | -32.64484 | 34782 ft | 493 kts | 26° |
| 2026-04-18 05:52 | -4.22364 | -32.61393 | 34781 ft | 491 kts | 26° |
| 2026-04-18 05:52 | -4.16211 | -32.58285 | 34790 ft | 491 kts | 26° |
| 2026-04-18 05:53 | -4.10093 | -32.55196 | 34801 ft | 493 kts | 26° |
| 2026-04-18 05:53 | -4.03977 | -32.52108 | 34796 ft | 494 kts | 26° |
| 2026-04-18 05:54 | -3.97806 | -32.48993 | 34794 ft | 495 kts | 26° |
| 2026-04-18 05:54 | -3.91617 | -32.45869 | 34796 ft | 494 kts | 26° |
| 2026-04-18 05:55 | -3.85491 | -32.42745 | 34797 ft | 492 kts | 27° |
| 2026-04-18 05:55 | -3.79438 | -32.39579 | 34794 ft | 492 kts | 27° |
| 2026-04-18 05:56 | -3.73352 | -32.36366 | 34787 ft | 492 kts | 28° |
| 2026-04-18 05:56 | -3.67275 | -32.33154 | 34785 ft | 492 kts | 27° |
| 2026-04-18 05:57 | -3.58169 | -32.28344 | 34781 ft | 492 kts | 28° |
| 2026-04-18 05:58 | -3.52099 | -32.25139 | 34782 ft | 492 kts | 28° |
| 2026-04-18 05:58 | -3.46012 | -32.21925 | 34783 ft | 491 kts | 28° |
| 2026-04-18 05:59 | -3.39969 | -32.18735 | 34782 ft | 491 kts | 28° |
| 2026-04-18 05:59 | -3.33909 | -32.15537 | 34782 ft | 490 kts | 28° |
| 2026-04-18 06:00 | -3.27864 | -32.12356 | 34781 ft | 490 kts | 28° |
| 2026-04-18 06:00 | -3.21758 | -32.09176 | 34782 ft | 491 kts | 28° |
| 2026-04-18 06:01 | -3.15707 | -32.06039 | 34782 ft | 491 kts | 28° |
| 2026-04-18 06:01 | -3.09608 | -32.02880 | 34783 ft | 492 kts | 28° |
| 2026-04-18 06:02 | -3.03518 | -31.99726 | 34785 ft | 493 kts | 28° |
| 2026-04-18 06:02 | -2.97400 | -31.96558 | 34782 ft | 493 kts | 28° |
| 2026-04-18 06:03 | -2.91305 | -31.93402 | 34785 ft | 493 kts | 28° |
| 2026-04-18 06:03 | -2.85207 | -31.90244 | 34784 ft | 493 kts | 28° |
| 2026-04-18 06:04 | -2.79088 | -31.87076 | 34785 ft | 493 kts | 28° |
| 2026-04-18 06:04 | -2.72954 | -31.83901 | 34786 ft | 492 kts | 28° |
| 2026-04-18 06:05 | -2.66890 | -31.80762 | 34784 ft | 491 kts | 28° |
| 2026-04-18 06:05 | -2.60807 | -31.77614 | 34781 ft | 492 kts | 28° |
| 2026-04-18 06:06 | -2.54701 | -31.74454 | 34786 ft | 492 kts | 28° |
| 2026-04-18 06:06 | -2.48584 | -31.71290 | 34782 ft | 491 kts | 28° |
| 2026-04-18 06:07 | -2.42489 | -31.68136 | 34772 ft | 489 kts | 28° |
| 2026-04-18 06:07 | -2.36458 | -31.65017 | 34774 ft | 488 kts | 28° |
| 2026-04-18 06:08 | -2.30400 | -31.61883 | 34781 ft | 489 kts | 28° |
| 2026-04-18 06:08 | -2.24314 | -31.58735 | 34783 ft | 492 kts | 28° |
| 2026-04-18 06:09 | -2.18209 | -31.55578 | 34787 ft | 492 kts | 28° |
| 2026-04-18 06:09 | -2.12135 | -31.52438 | 34783 ft | 490 kts | 28° |
| 2026-04-18 06:10 | -2.06050 | -31.49291 | 34784 ft | 489 kts | 28° |
| 2026-04-18 06:10 | -2.00005 | -31.46166 | 34781 ft | 490 kts | 28° |
| 2026-04-18 06:11 | -1.93906 | -31.43013 | 34782 ft | 490 kts | 28° |
| 2026-04-18 06:11 | -1.87875 | -31.39895 | 34779 ft | 489 kts | 28° |
| 2026-04-18 06:12 | -1.81797 | -31.36754 | 34779 ft | 490 kts | 28° |
| 2026-04-18 06:12 | -1.75722 | -31.33613 | 34782 ft | 490 kts | 28° |
| 2026-04-18 06:13 | -1.69657 | -31.30479 | 34782 ft | 489 kts | 28° |
| 2026-04-18 06:13 | -1.63612 | -31.27355 | 34782 ft | 488 kts | 28° |
| 2026-04-18 06:14 | -1.57583 | -31.24239 | 34782 ft | 488 kts | 28° |
| 2026-04-18 06:14 | -1.51507 | -31.21100 | 34783 ft | 488 kts | 28° |
| 2026-04-18 06:15 | -1.45485 | -31.17989 | 34782 ft | 489 kts | 28° |
| 2026-04-18 06:15 | -1.39413 | -31.14851 | 34781 ft | 489 kts | 28° |
| 2026-04-18 06:16 | -1.33319 | -31.11704 | 34782 ft | 489 kts | 28° |
| 2026-04-18 06:16 | -1.27295 | -31.08592 | 34783 ft | 488 kts | 28° |
| 2026-04-18 06:17 | -1.21242 | -31.05465 | 34783 ft | 488 kts | 28° |
| 2026-04-18 06:17 | -1.15183 | -31.02335 | 34785 ft | 488 kts | 28° |
| 2026-04-18 06:18 | -1.09106 | -30.99196 | 34784 ft | 489 kts | 28° |
| 2026-04-18 06:18 | -1.03034 | -30.96061 | 34783 ft | 488 kts | 28° |
| 2026-04-18 06:19 | -0.96996 | -30.92942 | 34783 ft | 488 kts | 28° |
| 2026-04-18 06:19 | -0.90927 | -30.89805 | 34783 ft | 489 kts | 28° |
| 2026-04-18 06:20 | -0.84872 | -30.86672 | 34782 ft | 489 kts | 28° |
| 2026-04-18 06:20 | -0.78822 | -30.83541 | 34782 ft | 489 kts | 28° |
| 2026-04-18 06:21 | -0.72721 | -30.80385 | 34781 ft | 488 kts | 28° |
| 2026-04-18 06:21 | -0.66656 | -30.77247 | 34782 ft | 488 kts | 28° |
| 2026-04-18 06:22 | -0.60559 | -30.74093 | 34783 ft | 490 kts | 28° |
| 2026-04-18 06:22 | -0.54521 | -30.70969 | 34782 ft | 489 kts | 28° |
| 2026-04-18 06:23 | -0.48437 | -30.67822 | 34782 ft | 489 kts | 28° |
| 2026-04-18 06:23 | -0.42375 | -30.64685 | 34784 ft | 489 kts | 28° |
| 2026-04-18 06:24 | -0.36327 | -30.61557 | 34781 ft | 490 kts | 28° |
| 2026-04-18 06:24 | -0.30225 | -30.58400 | 34783 ft | 490 kts | 28° |
| 2026-04-18 06:25 | -0.24192 | -30.55279 | 34783 ft | 489 kts | 28° |
| 2026-04-18 06:25 | -0.18116 | -30.52136 | 34788 ft | 488 kts | 28° |
| 2026-04-18 06:26 | -0.12103 | -30.49026 | 34797 ft | 488 kts | 28° |
| 2026-04-18 06:26 | -0.06047 | -30.45893 | 34799 ft | 488 kts | 28° |
| 2026-04-18 06:27 | 0.00016 | -30.42757 | 34803 ft | 488 kts | 28° |
| 2026-04-18 06:27 | 0.06056 | -30.39632 | 34803 ft | 489 kts | 27° |
| 2026-04-18 06:28 | 0.12151 | -30.36480 | 34802 ft | 489 kts | 28° |
| 2026-04-18 06:28 | 0.18205 | -30.33348 | 34802 ft | 488 kts | 27° |
| 2026-04-18 06:29 | 0.24249 | -30.30220 | 34804 ft | 489 kts | 27° |
| 2026-04-18 06:29 | 0.30309 | -30.27085 | 34802 ft | 489 kts | 27° |
| 2026-04-18 06:30 | 0.36370 | -30.23947 | 34803 ft | 490 kts | 27° |
| 2026-04-18 06:30 | 0.42436 | -30.20808 | 34802 ft | 489 kts | 28° |
| 2026-04-18 06:31 | 0.48484 | -30.17677 | 34802 ft | 489 kts | 28° |
| 2026-04-18 06:31 | 0.54551 | -30.14537 | 34803 ft | 489 kts | 28° |
| 2026-04-18 06:32 | 0.60594 | -30.11409 | 34803 ft | 489 kts | 28° |
| 2026-04-18 06:32 | 0.66672 | -30.08263 | 34803 ft | 489 kts | 28° |
| 2026-04-18 06:33 | 0.72718 | -30.05134 | 34804 ft | 489 kts | 28° |
| 2026-04-18 06:33 | 0.78765 | -30.02004 | 34801 ft | 489 kts | 28° |
| 2026-04-18 06:34 | 0.84842 | -29.98858 | 34800 ft | 489 kts | 28° |
| 2026-04-18 06:34 | 0.90905 | -29.95719 | 34798 ft | 489 kts | 28° |
| 2026-04-18 06:35 | 0.96956 | -29.92586 | 34802 ft | 489 kts | 28° |
| 2026-04-18 06:35 | 1.03028 | -29.89442 | 34802 ft | 489 kts | 28° |
| 2026-04-18 06:36 | 1.09052 | -29.86323 | 34803 ft | 489 kts | 27° |
| 2026-04-18 06:36 | 1.15149 | -29.83166 | 34802 ft | 488 kts | 27° |
| 2026-04-18 06:37 | 1.21189 | -29.80039 | 34803 ft | 488 kts | 27° |
| 2026-04-18 06:37 | 1.27244 | -29.76903 | 34803 ft | 489 kts | 27° |
| 2026-04-18 06:38 | 1.33297 | -29.73769 | 34803 ft | 489 kts | 27° |
| 2026-04-18 06:38 | 1.39017 | -29.70154 | 34803 ft | 488 kts | 43° |
| 2026-04-18 06:39 | 1.43463 | -29.64997 | 34804 ft | 492 kts | 53° |
| 2026-04-18 06:39 | 1.47427 | -29.59394 | 34803 ft | 494 kts | 54° |
| 2026-04-18 06:40 | 1.51320 | -29.53785 | 34803 ft | 492 kts | 54° |
| 2026-04-18 06:40 | 1.55256 | -29.48166 | 34805 ft | 492 kts | 54° |
| 2026-04-18 06:41 | 1.59210 | -29.42549 | 34809 ft | 492 kts | 54° |
| 2026-04-18 06:41 | 1.63149 | -29.36960 | 34808 ft | 492 kts | 54° |
| 2026-04-18 06:42 | 1.67089 | -29.31368 | 34808 ft | 494 kts | 54° |
| 2026-04-18 06:42 | 1.71056 | -29.25738 | 34810 ft | 494 kts | 54° |
| 2026-04-18 06:43 | 1.75012 | -29.20122 | 34816 ft | 492 kts | 54° |
| 2026-04-18 06:43 | 1.78960 | -29.14517 | 34820 ft | 493 kts | 54° |
| 2026-04-18 06:44 | 1.82902 | -29.08921 | 34821 ft | 493 kts | 54° |
| 2026-04-18 06:44 | 1.86865 | -29.03294 | 34821 ft | 495 kts | 54° |
| 2026-04-18 06:45 | 1.90843 | -28.97646 | 34820 ft | 496 kts | 54° |
| 2026-04-18 06:45 | 1.94808 | -28.92014 | 34821 ft | 494 kts | 54° |
| 2026-04-18 06:46 | 1.98763 | -28.86396 | 34823 ft | 494 kts | 54° |
| 2026-04-18 06:46 | 2.02716 | -28.80782 | 34824 ft | 494 kts | 54° |
| 2026-04-18 06:47 | 2.06675 | -28.75157 | 34823 ft | 494 kts | 54° |
| 2026-04-18 06:47 | 2.10617 | -28.69558 | 34824 ft | 494 kts | 54° |
| 2026-04-18 06:48 | 2.14559 | -28.63956 | 34823 ft | 494 kts | 54° |
| 2026-04-18 06:48 | 2.18529 | -28.58315 | 34817 ft | 494 kts | 54° |
| 2026-04-18 06:49 | 2.22484 | -28.52693 | 34810 ft | 494 kts | 54° |
| 2026-04-18 06:49 | 2.26428 | -28.47089 | 34807 ft | 494 kts | 53° |
| 2026-04-18 06:50 | 2.30378 | -28.41474 | 34807 ft | 494 kts | 53° |
| 2026-04-18 06:50 | 2.34334 | -28.35851 | 34805 ft | 494 kts | 53° |
| 2026-04-18 06:51 | 2.38305 | -28.30205 | 34802 ft | 495 kts | 54° |
| 2026-04-18 06:51 | 2.42290 | -28.24539 | 34805 ft | 496 kts | 54° |
| 2026-04-18 06:52 | 2.46233 | -28.18930 | 34802 ft | 495 kts | 54° |
| 2026-04-18 06:52 | 2.50195 | -28.13295 | 34807 ft | 495 kts | 54° |
| 2026-04-18 06:53 | 2.54184 | -28.07623 | 34812 ft | 496 kts | 53° |
| 2026-04-18 06:53 | 2.58156 | -28.01971 | 34812 ft | 497 kts | 54° |
| 2026-04-18 06:54 | 2.62137 | -27.96307 | 34818 ft | 498 kts | 53° |
| 2026-04-18 06:54 | 2.66115 | -27.90646 | 34812 ft | 499 kts | 54° |
| 2026-04-18 06:55 | 2.70115 | -27.84954 | 34818 ft | 498 kts | 53° |
| 2026-04-18 06:55 | 2.74087 | -27.79300 | 34818 ft | 498 kts | 54° |
| 2026-04-18 06:56 | 2.78069 | -27.73632 | 34819 ft | 499 kts | 53° |
| 2026-04-18 06:56 | 2.82075 | -27.67929 | 34821 ft | 500 kts | 53° |
| 2026-04-18 06:57 | 2.86070 | -27.62240 | 34822 ft | 501 kts | 53° |
| 2026-04-18 06:57 | 2.92104 | -27.53647 | 34823 ft | 500 kts | 54° |
| 2026-04-18 06:58 | 2.96086 | -27.47974 | 34821 ft | 500 kts | 54° |
| 2026-04-18 06:58 | 3.00101 | -27.42254 | 34823 ft | 500 kts | 53° |
| 2026-04-18 06:59 | 3.04092 | -27.36568 | 34823 ft | 501 kts | 53° |
| 2026-04-18 06:59 | 3.08105 | -27.30850 | 34823 ft | 501 kts | 54° |
| 2026-04-18 07:00 | 3.12129 | -27.25114 | 34824 ft | 502 kts | 53° |
| 2026-04-18 07:00 | 3.16134 | -27.19404 | 34824 ft | 503 kts | 53° |
| 2026-04-18 07:01 | 3.20166 | -27.13656 | 34823 ft | 504 kts | 53° |
| 2026-04-18 07:01 | 3.24190 | -27.07917 | 34823 ft | 502 kts | 53° |
| 2026-04-18 07:02 | 3.28198 | -27.02201 | 34823 ft | 502 kts | 53° |
| 2026-04-18 07:02 | 3.32206 | -26.96485 | 34823 ft | 502 kts | 53° |
| 2026-04-18 07:03 | 3.36240 | -26.90729 | 34824 ft | 502 kts | 53° |
| 2026-04-18 07:03 | 3.40253 | -26.85004 | 34824 ft | 503 kts | 53° |
| 2026-04-18 07:04 | 3.44285 | -26.79251 | 34823 ft | 504 kts | 53° |
| 2026-04-18 07:04 | 3.48298 | -26.73521 | 34819 ft | 503 kts | 53° |
| 2026-04-18 07:05 | 3.52318 | -26.67783 | 34822 ft | 502 kts | 53° |
| 2026-04-18 07:05 | 3.56324 | -26.62062 | 34826 ft | 502 kts | 53° |
| 2026-04-18 07:06 | 3.60338 | -26.56330 | 34826 ft | 502 kts | 53° |
| 2026-04-18 07:06 | 3.64349 | -26.50601 | 34823 ft | 503 kts | 53° |
| 2026-04-18 07:07 | 3.68392 | -26.44826 | 34824 ft | 504 kts | 53° |
| 2026-04-18 07:07 | 3.72404 | -26.39092 | 34822 ft | 504 kts | 53° |
| 2026-04-18 07:08 | 3.76435 | -26.33332 | 34822 ft | 504 kts | 53° |
| 2026-04-18 07:08 | 3.80461 | -26.27576 | 34826 ft | 503 kts | 53° |
| 2026-04-18 07:09 | 3.84449 | -26.21875 | 34825 ft | 502 kts | 53° |
| 2026-04-18 07:09 | 3.88484 | -26.16105 | 34823 ft | 503 kts | 53° |
| 2026-04-18 07:10 | 3.92501 | -26.10361 | 34823 ft | 505 kts | 53° |
| 2026-04-18 07:10 | 3.96526 | -26.04603 | 34823 ft | 506 kts | 53° |
| 2026-04-18 07:11 | 4.01064 | -25.99235 | 34826 ft | 502 kts | 40° |
| 2026-04-18 07:11 | 4.06439 | -25.94820 | 34823 ft | 499 kts | 35° |
| 2026-04-18 07:12 | 4.12029 | -25.90677 | 34825 ft | 499 kts | 34° |
| 2026-04-18 07:12 | 4.17664 | -25.86524 | 34827 ft | 499 kts | 34° |
| 2026-04-18 07:13 | 4.23257 | -25.82374 | 34830 ft | 500 kts | 34° |
| 2026-04-18 07:13 | 4.28832 | -25.78225 | 34830 ft | 500 kts | 34° |
| 2026-04-18 07:14 | 4.34455 | -25.74036 | 34827 ft | 500 kts | 34° |
| 2026-04-18 07:14 | 4.40023 | -25.69888 | 34831 ft | 501 kts | 34° |
| 2026-04-18 07:15 | 4.45648 | -25.65697 | 34834 ft | 501 kts | 34° |
| 2026-04-18 07:15 | 4.51257 | -25.61517 | 34833 ft | 500 kts | 34° |
| 2026-04-18 07:16 | 4.56901 | -25.57309 | 34836 ft | 501 kts | 34° |
| 2026-04-18 07:16 | 4.62515 | -25.53125 | 34835 ft | 501 kts | 34° |
| 2026-04-18 07:17 | 4.68141 | -25.48929 | 34840 ft | 501 kts | 34° |
| 2026-04-18 07:17 | 4.73722 | -25.44766 | 34843 ft | 502 kts | 34° |
| 2026-04-18 07:18 | 4.79377 | -25.40548 | 34843 ft | 501 kts | 34° |
| 2026-04-18 07:18 | 4.84978 | -25.36368 | 34846 ft | 501 kts | 34° |
| 2026-04-18 07:19 | 4.90606 | -25.32168 | 34844 ft | 501 kts | 34° |
| 2026-04-18 07:19 | 4.96196 | -25.27996 | 34845 ft | 502 kts | 33° |
| 2026-04-18 07:20 | 5.01824 | -25.23794 | 34844 ft | 502 kts | 34° |
| 2026-04-18 07:20 | 5.07444 | -25.19597 | 34843 ft | 501 kts | 34° |
| 2026-04-18 07:21 | 5.13046 | -25.15412 | 34844 ft | 501 kts | 34° |
| 2026-04-18 07:21 | 5.18656 | -25.11221 | 34847 ft | 502 kts | 34° |
| 2026-04-18 07:22 | 5.24254 | -25.07037 | 34846 ft | 500 kts | 34° |
| 2026-04-18 07:22 | 5.29857 | -25.02849 | 34848 ft | 501 kts | 34° |
| 2026-04-18 07:23 | 5.35474 | -24.98650 | 34846 ft | 501 kts | 33° |
| 2026-04-18 07:23 | 5.41080 | -24.94457 | 34843 ft | 500 kts | 33° |
| 2026-04-18 07:24 | 5.46648 | -24.90292 | 34845 ft | 499 kts | 33° |
| 2026-04-18 07:24 | 5.52271 | -24.86087 | 34853 ft | 500 kts | 33° |
| 2026-04-18 07:25 | 5.57831 | -24.81925 | 34854 ft | 500 kts | 33° |
| 2026-04-18 07:25 | 5.63448 | -24.77721 | 34855 ft | 500 kts | 33° |
| 2026-04-18 07:26 | 5.69051 | -24.73526 | 34852 ft | 500 kts | 33° |
| 2026-04-18 07:26 | 5.74695 | -24.69298 | 34848 ft | 499 kts | 33° |
| 2026-04-18 07:27 | 5.80251 | -24.65136 | 34842 ft | 499 kts | 33° |
| 2026-04-18 07:27 | 5.85776 | -24.60997 | 34842 ft | 499 kts | 33° |
| 2026-04-18 07:28 | 5.91371 | -24.56803 | 34844 ft | 499 kts | 33° |
| 2026-04-18 07:28 | 5.96943 | -24.52627 | 34844 ft | 500 kts | 33° |
| 2026-04-18 07:29 | 6.02539 | -24.48430 | 34844 ft | 500 kts | 33° |
| 2026-04-18 07:29 | 6.08110 | -24.44253 | 34847 ft | 500 kts | 33° |
| 2026-04-18 07:30 | 6.13721 | -24.40041 | 34844 ft | 500 kts | 33° |
| 2026-04-18 07:30 | 6.19298 | -24.35856 | 34846 ft | 500 kts | 33° |
| 2026-04-18 07:31 | 6.24857 | -24.31683 | 34852 ft | 498 kts | 33° |
| 2026-04-18 07:31 | 6.30459 | -24.27477 | 34848 ft | 499 kts | 33° |
| 2026-04-18 07:32 | 6.36039 | -24.23286 | 34845 ft | 499 kts | 33° |
| 2026-04-18 07:32 | 6.41638 | -24.19081 | 34844 ft | 499 kts | 33° |
| 2026-04-18 07:33 | 6.46309 | -24.15570 | 34844 ft | 500 kts | 33° |
| 2026-04-18 07:33 | 6.53311 | -24.10306 | 34844 ft | 500 kts | 33° |
| 2026-04-18 07:34 | 6.58912 | -24.06094 | 34844 ft | 499 kts | 33° |
| 2026-04-18 07:34 | 6.64463 | -24.01918 | 34844 ft | 498 kts | 33° |
| 2026-04-18 07:35 | 6.70059 | -23.97709 | 34851 ft | 499 kts | 33° |
| 2026-04-18 07:35 | 6.75621 | -23.93524 | 34859 ft | 500 kts | 33° |
| 2026-04-18 07:36 | 6.81212 | -23.89314 | 34864 ft | 500 kts | 32° |
| 2026-04-18 07:36 | 6.86793 | -23.85112 | 34864 ft | 500 kts | 33° |
| 2026-04-18 07:37 | 6.92368 | -23.80911 | 34864 ft | 500 kts | 32° |
| 2026-04-18 07:37 | 6.97968 | -23.76692 | 34865 ft | 499 kts | 32° |
| 2026-04-18 07:38 | 7.03532 | -23.72498 | 34865 ft | 499 kts | 32° |
| 2026-04-18 07:38 | 7.09139 | -23.68271 | 34865 ft | 500 kts | 33° |
| 2026-04-18 07:39 | 7.14738 | -23.64048 | 34866 ft | 500 kts | 33° |
| 2026-04-18 07:39 | 7.20315 | -23.59840 | 34865 ft | 500 kts | 32° |
| 2026-04-18 07:40 | 7.25895 | -23.55629 | 34865 ft | 499 kts | 33° |
| 2026-04-18 07:40 | 7.31089 | -23.51709 | 34866 ft | 500 kts | 32° |
| 2026-04-18 07:41 | 7.36861 | -23.47350 | 34866 ft | 500 kts | 32° |
| 2026-04-18 07:41 | 7.42435 | -23.43140 | 34867 ft | 501 kts | 32° |
| 2026-04-18 07:42 | 7.48052 | -23.38895 | 34864 ft | 500 kts | 32° |
| 2026-04-18 07:42 | 7.53599 | -23.34701 | 34864 ft | 500 kts | 32° |
| 2026-04-18 07:43 | 7.59211 | -23.30459 | 34865 ft | 501 kts | 32° |
| 2026-04-18 07:43 | 7.64776 | -23.26249 | 34866 ft | 499 kts | 32° |
| 2026-04-18 07:44 | 7.70379 | -23.22010 | 34865 ft | 500 kts | 32° |
| 2026-04-18 07:44 | 7.75948 | -23.17796 | 34864 ft | 501 kts | 32° |
| 2026-04-18 07:45 | 7.81571 | -23.13538 | 34864 ft | 501 kts | 32° |
| 2026-04-18 07:45 | 7.87133 | -23.09325 | 34863 ft | 501 kts | 32° |
| 2026-04-18 07:46 | 7.92727 | -23.05086 | 34857 ft | 501 kts | 32° |
| 2026-04-18 07:46 | 7.98278 | -23.00780 | 34849 ft | 503 kts | 35° |
| 2026-04-18 07:47 | 8.03577 | -22.96100 | 34844 ft | 505 kts | 38° |
| 2026-04-18 07:47 | 8.08699 | -22.91279 | 34845 ft | 506 kts | 39° |
| 2026-04-18 07:48 | 8.13835 | -22.86387 | 34846 ft | 508 kts | 39° |
| 2026-04-18 07:48 | 8.18974 | -22.81494 | 34848 ft | 505 kts | 39° |
| 2026-04-18 07:49 | 8.24082 | -22.76636 | 34854 ft | 505 kts | 38° |
| 2026-04-18 07:49 | 8.29195 | -22.71777 | 34860 ft | 505 kts | 39° |
| 2026-04-18 07:50 | 8.34330 | -22.66894 | 34864 ft | 507 kts | 39° |
| 2026-04-18 07:50 | 8.39485 | -22.61989 | 34863 ft | 506 kts | 39° |
| 2026-04-18 07:51 | 8.44594 | -22.57127 | 34866 ft | 506 kts | 39° |
| 2026-04-18 07:51 | 8.49732 | -22.52234 | 34865 ft | 506 kts | 38° |
| 2026-04-18 07:52 | 8.54882 | -22.47330 | 34867 ft | 507 kts | 39° |
| 2026-04-18 07:52 | 8.60002 | -22.42451 | 34866 ft | 507 kts | 39° |
| 2026-04-18 07:53 | 8.65153 | -22.37540 | 34866 ft | 507 kts | 39° |
| 2026-04-18 07:53 | 8.70279 | -22.32652 | 34865 ft | 506 kts | 39° |
| 2026-04-18 07:54 | 8.75417 | -22.27751 | 34865 ft | 506 kts | 39° |
| 2026-04-18 07:54 | 8.80546 | -22.22856 | 34868 ft | 506 kts | 39° |
| 2026-04-18 07:55 | 8.85650 | -22.17983 | 34866 ft | 506 kts | 39° |
| 2026-04-18 07:55 | 8.90788 | -22.13075 | 34863 ft | 506 kts | 39° |
| 2026-04-18 07:56 | 8.95885 | -22.08205 | 34868 ft | 506 kts | 39° |
| 2026-04-18 07:56 | 9.01001 | -22.03313 | 34864 ft | 505 kts | 39° |
| 2026-04-18 07:57 | 9.06115 | -21.98423 | 34865 ft | 505 kts | 39° |
| 2026-04-18 07:57 | 9.11241 | -21.93519 | 34867 ft | 506 kts | 39° |
| 2026-04-18 07:58 | 9.18887 | -21.86200 | 34866 ft | 505 kts | 39° |
| 2026-04-18 07:59 | 9.24010 | -21.81295 | 34865 ft | 505 kts | 39° |
| 2026-04-18 07:59 | 9.29123 | -21.76396 | 34867 ft | 506 kts | 38° |
| 2026-04-18 08:00 | 9.34227 | -21.71504 | 34863 ft | 505 kts | 39° |
| 2026-04-18 08:00 | 9.39328 | -21.66613 | 34868 ft | 506 kts | 39° |
| 2026-04-18 08:01 | 9.44461 | -21.61688 | 34867 ft | 507 kts | 39° |
| 2026-04-18 08:01 | 9.49575 | -21.56780 | 34865 ft | 506 kts | 39° |
| 2026-04-18 08:02 | 9.54684 | -21.51874 | 34865 ft | 507 kts | 38° |
| 2026-04-18 08:02 | 9.59814 | -21.46946 | 34855 ft | 505 kts | 38° |
| 2026-04-18 08:03 | 9.64895 | -21.42064 | 34855 ft | 506 kts | 39° |
| 2026-04-18 08:03 | 9.70011 | -21.37145 | 34860 ft | 506 kts | 38° |
| 2026-04-18 08:04 | 9.75135 | -21.32217 | 34862 ft | 505 kts | 39° |
| 2026-04-18 08:04 | 9.80216 | -21.27329 | 34862 ft | 507 kts | 39° |
| 2026-04-18 08:05 | 9.85368 | -21.22369 | 34866 ft | 508 kts | 39° |
| 2026-04-18 08:05 | 9.90455 | -21.17467 | 34865 ft | 505 kts | 38° |
| 2026-04-18 08:06 | 9.95574 | -21.12534 | 34867 ft | 505 kts | 38° |
| 2026-04-18 08:06 | 10.00668 | -21.07625 | 34866 ft | 506 kts | 39° |
| 2026-04-18 08:07 | 10.05790 | -21.02687 | 34867 ft | 507 kts | 38° |
| 2026-04-18 08:07 | 10.10894 | -20.97760 | 34866 ft | 506 kts | 39° |
| 2026-04-18 08:08 | 10.16001 | -20.92831 | 34865 ft | 507 kts | 39° |
| 2026-04-18 08:08 | 10.21118 | -20.87888 | 34865 ft | 506 kts | 39° |
| 2026-04-18 08:09 | 10.26246 | -20.82933 | 34866 ft | 507 kts | 38° |
| 2026-04-18 08:09 | 10.31338 | -20.78011 | 34865 ft | 506 kts | 39° |
| 2026-04-18 08:10 | 10.36448 | -20.73068 | 34865 ft | 505 kts | 38° |
| 2026-04-18 08:10 | 10.41539 | -20.68144 | 34867 ft | 507 kts | 38° |
| 2026-04-18 08:11 | 10.46656 | -20.63190 | 34866 ft | 506 kts | 38° |
| 2026-04-18 08:11 | 10.51751 | -20.58256 | 34865 ft | 508 kts | 38° |
| 2026-04-18 08:12 | 10.56891 | -20.53275 | 34865 ft | 507 kts | 38° |
| 2026-04-18 08:12 | 10.61970 | -20.48350 | 34866 ft | 506 kts | 38° |
| 2026-04-18 08:13 | 10.67084 | -20.43391 | 34865 ft | 508 kts | 38° |
| 2026-04-18 08:13 | 10.72185 | -20.38441 | 34866 ft | 507 kts | 38° |
| 2026-04-18 08:14 | 10.77317 | -20.33458 | 34864 ft | 507 kts | 38° |
| 2026-04-18 08:14 | 10.82406 | -20.28514 | 34865 ft | 507 kts | 38° |
| 2026-04-18 08:15 | 10.87484 | -20.23580 | 34865 ft | 507 kts | 38° |
| 2026-04-18 08:15 | 10.92590 | -20.18615 | 34864 ft | 507 kts | 38° |
| 2026-04-18 08:16 | 10.97694 | -20.13650 | 34865 ft | 508 kts | 38° |
| 2026-04-18 08:16 | 11.02821 | -20.08660 | 34865 ft | 509 kts | 38° |
| 2026-04-18 08:17 | 11.07919 | -20.03694 | 34864 ft | 507 kts | 38° |
| 2026-04-18 08:17 | 11.13028 | -19.98717 | 34864 ft | 508 kts | 38° |
| 2026-04-18 08:18 | 11.18149 | -19.93725 | 34865 ft | 508 kts | 38° |
| 2026-04-18 08:18 | 11.23270 | -19.88730 | 34864 ft | 509 kts | 38° |
| 2026-04-18 08:19 | 11.28398 | -19.83728 | 34865 ft | 510 kts | 38° |
| 2026-04-18 08:19 | 11.33520 | -19.78727 | 34867 ft | 510 kts | 38° |
| 2026-04-18 08:20 | 11.38647 | -19.73717 | 34868 ft | 509 kts | 38° |
| 2026-04-18 08:20 | 11.43801 | -19.68760 | 34874 ft | 507 kts | 35° |
| 2026-04-18 08:21 | 11.49401 | -19.64398 | 34876 ft | 502 kts | 28° |
| 2026-04-18 08:21 | 11.55210 | -19.60479 | 34873 ft | 500 kts | 27° |
| 2026-04-18 08:22 | 11.61067 | -19.56643 | 34872 ft | 501 kts | 27° |
| 2026-04-18 08:22 | 11.66962 | -19.52775 | 34871 ft | 501 kts | 27° |
| 2026-04-18 08:23 | 11.72810 | -19.48921 | 34870 ft | 500 kts | 27° |
| 2026-04-18 08:23 | 11.78662 | -19.45059 | 34872 ft | 500 kts | 27° |
| 2026-04-18 08:24 | 11.84549 | -19.41173 | 34871 ft | 502 kts | 27° |
| 2026-04-18 08:24 | 11.90424 | -19.37292 | 34867 ft | 501 kts | 27° |
| 2026-04-18 08:25 | 11.96269 | -19.33427 | 34863 ft | 500 kts | 27° |
| 2026-04-18 08:25 | 12.02143 | -19.29544 | 34865 ft | 501 kts | 26° |
| 2026-04-18 08:26 | 12.07995 | -19.25673 | 34867 ft | 502 kts | 27° |
| 2026-04-18 08:26 | 12.13896 | -19.21767 | 34867 ft | 504 kts | 26° |
| 2026-04-18 08:27 | 12.19768 | -19.17876 | 34865 ft | 502 kts | 26° |
| 2026-04-18 08:27 | 12.25623 | -19.13995 | 34866 ft | 502 kts | 26° |
| 2026-04-18 08:28 | 12.31532 | -19.10078 | 34866 ft | 504 kts | 26° |
| 2026-04-18 08:28 | 12.37462 | -19.06144 | 34868 ft | 503 kts | 26° |
| 2026-04-18 08:29 | 12.43317 | -19.02257 | 34868 ft | 502 kts | 26° |
| 2026-04-18 08:29 | 12.49217 | -18.98339 | 34863 ft | 502 kts | 26° |
| 2026-04-18 08:30 | 12.55065 | -18.94452 | 34866 ft | 501 kts | 26° |
| 2026-04-18 08:30 | 12.60959 | -18.90536 | 34865 ft | 503 kts | 26° |
| 2026-04-18 08:31 | 12.66832 | -18.86627 | 34867 ft | 503 kts | 26° |
| 2026-04-18 08:31 | 12.72753 | -18.82687 | 34864 ft | 504 kts | 26° |
| 2026-04-18 08:32 | 12.78614 | -18.78784 | 34865 ft | 504 kts | 26° |
| 2026-04-18 08:32 | 12.84514 | -18.74852 | 34864 ft | 504 kts | 26° |
| 2026-04-18 08:33 | 12.90390 | -18.70933 | 34858 ft | 502 kts | 26° |
| 2026-04-18 08:33 | 12.96298 | -18.66993 | 34852 ft | 504 kts | 26° |
| 2026-04-18 08:34 | 13.02169 | -18.63072 | 34847 ft | 502 kts | 26° |
| 2026-04-18 08:34 | 13.05106 | -18.61112 | 34661 ft | 502 kts | 26° |
| 2026-04-18 08:34 | 13.08027 | -18.59159 | 33955 ft | 500 kts | 26° |
| 2026-04-18 08:34 | 13.10962 | -18.57199 | 33224 ft | 506 kts | 26° |
| 2026-04-18 08:35 | 13.13999 | -18.55178 | 32521 ft | 522 kts | 27° |
| 2026-04-18 08:35 | 13.17091 | -18.53117 | 31853 ft | 529 kts | 27° |
| 2026-04-18 08:35 | 13.20128 | -18.51082 | 31231 ft | 524 kts | 27° |
| 2026-04-18 08:35 | 13.23124 | -18.49070 | 30618 ft | 518 kts | 27° |
| 2026-04-18 08:36 | 13.26172 | -18.47023 | 30051 ft | 510 kts | 27° |
| 2026-04-18 08:36 | 13.29143 | -18.45029 | 29444 ft | 504 kts | 28° |
| 2026-04-18 08:36 | 13.32059 | -18.43075 | 28838 ft | 501 kts | 28° |
| 2026-04-18 08:36 | 13.34950 | -18.41139 | 28254 ft | 497 kts | 28° |
| 2026-04-18 08:37 | 13.37876 | -18.39182 | 27670 ft | 503 kts | 28° |
| 2026-04-18 08:37 | 13.40870 | -18.37185 | 27081 ft | 519 kts | 28° |
| 2026-04-18 08:37 | 13.43929 | -18.35141 | 26496 ft | 522 kts | 29° |
| 2026-04-18 08:37 | 13.46983 | -18.33089 | 25909 ft | 515 kts | 29° |
| 2026-04-18 08:38 | 13.49955 | -18.31091 | 25337 ft | 509 kts | 30° |
| 2026-04-18 08:38 | 13.52943 | -18.29082 | 24752 ft | 506 kts | 30° |
| 2026-04-18 08:38 | 13.55868 | -18.27118 | 24179 ft | 504 kts | 30° |
| 2026-04-18 08:38 | 13.58815 | -18.25139 | 23612 ft | 500 kts | 30° |
| 2026-04-18 08:39 | 13.61725 | -18.23185 | 23061 ft | 497 kts | 30° |
| 2026-04-18 08:39 | 13.64612 | -18.21246 | 22550 ft | 492 kts | 31° |
| 2026-04-18 08:39 | 13.67463 | -18.19331 | 22144 ft | 489 kts | 31° |
| 2026-04-18 08:39 | 13.70314 | -18.17416 | 21742 ft | 487 kts | 31° |
| 2026-04-18 08:40 | 13.73154 | -18.15506 | 21333 ft | 483 kts | 31° |
| 2026-04-18 08:40 | 13.75967 | -18.13614 | 20979 ft | 478 kts | 31° |
| 2026-04-18 08:40 | 13.78750 | -18.11742 | 20636 ft | 475 kts | 31° |
| 2026-04-18 08:40 | 13.81499 | -18.09892 | 20297 ft | 474 kts | 31° |
| 2026-04-18 08:41 | 13.84277 | -18.08022 | 19941 ft | 471 kts | 31° |
| 2026-04-18 08:41 | 13.87014 | -18.06179 | 19593 ft | 466 kts | 32° |
| 2026-04-18 08:41 | 13.89693 | -18.04375 | 19249 ft | 461 kts | 32° |
| 2026-04-18 08:41 | 13.92413 | -18.02538 | 18894 ft | 458 kts | 33° |
| 2026-04-18 08:42 | 13.94977 | -18.00630 | 18541 ft | 457 kts | 37° |
| 2026-04-18 08:42 | 13.97448 | -17.98558 | 18187 ft | 453 kts | 39° |
| 2026-04-18 08:42 | 13.99829 | -17.96415 | 17831 ft | 449 kts | 41° |
| 2026-04-18 08:42 | 14.02133 | -17.94263 | 17474 ft | 446 kts | 42° |
| 2026-04-18 08:43 | 14.04401 | -17.92109 | 17180 ft | 443 kts | 42° |
| 2026-04-18 08:43 | 14.06678 | -17.89934 | 16832 ft | 443 kts | 43° |
| 2026-04-18 08:43 | 14.08939 | -17.87771 | 16485 ft | 440 kts | 43° |
| 2026-04-18 08:43 | 14.11175 | -17.85634 | 16139 ft | 436 kts | 43° |
| 2026-04-18 08:44 | 14.13400 | -17.83508 | 15792 ft | 432 kts | 43° |
| 2026-04-18 08:44 | 14.15606 | -17.81400 | 15442 ft | 430 kts | 43° |
| 2026-04-18 08:44 | 14.17815 | -17.79289 | 15092 ft | 427 kts | 43° |
| 2026-04-18 08:44 | 14.20004 | -17.77198 | 14740 ft | 422 kts | 43° |
| 2026-04-18 08:45 | 14.22147 | -17.75150 | 14392 ft | 419 kts | 43° |
| 2026-04-18 08:45 | 14.24295 | -17.73097 | 14042 ft | 417 kts | 43° |
| 2026-04-18 08:45 | 14.26414 | -17.71069 | 13693 ft | 413 kts | 43° |
| 2026-04-18 08:45 | 14.28526 | -17.69049 | 13340 ft | 411 kts | 44° |
| 2026-04-18 08:46 | 14.30609 | -17.67055 | 12955 ft | 410 kts | 44° |
| 2026-04-18 08:46 | 14.32694 | -17.65058 | 12493 ft | 404 kts | 43° |
| 2026-04-18 08:46 | 14.34731 | -17.63109 | 12034 ft | 397 kts | 43° |
| 2026-04-18 08:46 | 14.36760 | -17.61165 | 11565 ft | 390 kts | 43° |
| 2026-04-18 08:47 | 14.38750 | -17.59259 | 11099 ft | 384 kts | 43° |
| 2026-04-18 08:47 | 14.40688 | -17.57402 | 10643 ft | 378 kts | 43° |
| 2026-04-18 08:47 | 14.42619 | -17.55552 | 10179 ft | 373 kts | 43° |
| 2026-04-18 08:47 | 14.44527 | -17.53723 | 9730 ft | 366 kts | 43° |
| 2026-04-18 08:48 | 14.46358 | -17.51967 | 9663 ft | 347 kts | 43° |
| 2026-04-18 08:48 | 14.48063 | -17.50333 | 9629 ft | 315 kts | 44° |
| 2026-04-18 08:48 | 14.49637 | -17.48822 | 9102 ft | 309 kts | 44° |
| 2026-04-18 08:48 | 14.51202 | -17.47320 | 8320 ft | 310 kts | 44° |
| 2026-04-18 08:49 | 14.52790 | -17.45796 | 7520 ft | 310 kts | 44° |
| 2026-04-18 08:49 | 14.54275 | -17.44201 | 6714 ft | 307 kts | 48° |
| 2026-04-18 08:49 | 14.55962 | -17.42831 | 5906 ft | 308 kts | 28° |
| 2026-04-18 08:49 | 14.57970 | -17.42127 | 5114 ft | 304 kts | 10° |
| 2026-04-18 08:50 | 14.60056 | -17.42123 | 4442 ft | 297 kts | 356° |
| 2026-04-18 08:50 | 14.62065 | -17.42403 | 3833 ft | 286 kts | 352° |
| 2026-04-18 08:50 | 14.63826 | -17.43214 | 3452 ft | 270 kts | 324° |
| 2026-04-18 08:50 | 14.64981 | -17.44664 | 3090 ft | 249 kts | 306° |
| 2026-04-18 08:51 | 14.65855 | -17.46135 | 2675 ft | 232 kts | 307° |
| 2026-04-18 08:51 | 14.66861 | -17.47165 | 2843 ft | 179 kts | 346° |
| 2026-04-18 08:51 | 14.68103 | -17.47271 | 2094 ft | 203 kts | 5° |
| 2026-04-18 08:51 | 14.69599 | -17.47233 | 874 ft | 221 kts | 354° |
| 2026-04-18 08:52 | 14.71042 | -17.47474 | 573 ft | 200 kts | 353° |
| 2026-04-18 08:52 | 14.72380 | -17.47658 | 201 ft | 187 kts | 353° |
| 2026-04-18 08:52 | 14.73649 | -17.47809 | 543 ft | 187 kts | 353° |
| 2026-04-18 08:52 | 14.74929 | -17.47933 | 1561 ft | 192 kts | 356° |
| 2026-04-18 08:53 | 14.76237 | -17.48144 | 2359 ft | 193 kts | 354° |
| 2026-04-18 08:53 | 14.77599 | -17.48391 | 2676 ft | 202 kts | 354° |
| 2026-04-18 08:53 | 14.78934 | -17.49012 | 2809 ft | 227 kts | 320° |
| 2026-04-18 08:53 | 14.79770 | -17.50501 | 2848 ft | 259 kts | 285° |
| 2026-04-18 08:54 | 14.79796 | -17.52450 | 2862 ft | 283 kts | 266° |
| 2026-04-18 08:54 | 14.79497 | -17.54474 | 2842 ft | 281 kts | 253° |
| 2026-04-18 08:54 | 14.78435 | -17.56193 | 2851 ft | 285 kts | 220° |
| 2026-04-18 08:54 | 14.76711 | -17.57125 | 2851 ft | 280 kts | 189° |
| 2026-04-18 08:55 | 14.74763 | -17.57221 | 2856 ft | 278 kts | 175° |
| 2026-04-18 08:55 | 14.72824 | -17.57135 | 2855 ft | 278 kts | 174° |
| 2026-04-18 08:55 | 14.70872 | -17.57034 | 2854 ft | 276 kts | 174° |
| 2026-04-18 08:55 | 14.68952 | -17.56935 | 2852 ft | 278 kts | 174° |
| 2026-04-18 08:56 | 14.66985 | -17.56834 | 2852 ft | 278 kts | 174° |
| 2026-04-18 08:56 | 14.65047 | -17.56730 | 2854 ft | 278 kts | 174° |
| 2026-04-18 08:56 | 14.63108 | -17.56627 | 2853 ft | 277 kts | 174° |
| 2026-04-18 08:56 | 14.61167 | -17.56523 | 2854 ft | 272 kts | 174° |
| 2026-04-18 08:57 | 14.57904 | -17.55616 | 2852 ft | 214 kts | 127° |
| 2026-04-18 08:57 | 14.57378 | -17.54364 | 2858 ft | 174 kts | 88° |
| 2026-04-18 08:57 | 14.57409 | -17.53190 | 2856 ft | 157 kts | 83° |
| 2026-04-18 08:58 | 14.57445 | -17.52122 | 2838 ft | 142 kts | 84° |
| 2026-04-18 08:58 | 14.57473 | -17.51092 | 2849 ft | 142 kts | 84° |
| 2026-04-18 08:58 | 14.57504 | -17.50089 | 2846 ft | 140 kts | 84° |
| 2026-04-18 08:58 | 14.57547 | -17.49087 | 2839 ft | 139 kts | 76° |
| 2026-04-18 08:59 | 14.57768 | -17.48110 | 2850 ft | 139 kts | 71° |
| 2026-04-18 08:59 | 14.58418 | -17.47430 | 2852 ft | 142 kts | 16° |
| 2026-04-18 08:59 | 14.59438 | -17.47481 | 2863 ft | 146 kts | 4° |
| 2026-04-18 08:59 | 14.60401 | -17.47199 | 2613 ft | 146 kts | 30° |
| 2026-04-18 09:00 | 14.61319 | -17.46854 | 2441 ft | 137 kts | 16° |
| 2026-04-18 09:00 | 14.62274 | -17.46640 | 2365 ft | 137 kts | 16° |
| 2026-04-18 09:00 | 14.63222 | -17.46482 | 2265 ft | 140 kts | 7° |
| 2026-04-18 09:00 | 14.64197 | -17.46548 | 2162 ft | 143 kts | 355° |
| 2026-04-18 09:01 | 14.65179 | -17.46745 | 2041 ft | 141 kts | 354° |
| 2026-04-18 09:01 | 14.66151 | -17.46941 | 1866 ft | 140 kts | 356° |
| 2026-04-18 09:01 | 14.67111 | -17.47012 | 1657 ft | 135 kts | 359° |
| 2026-04-18 09:01 | 14.68076 | -17.47069 | 1345 ft | 139 kts | 356° |
| 2026-04-18 09:02 | 14.69033 | -17.47202 | 951 ft | 141 kts | 354° |
| 2026-04-18 09:02 | 14.69998 | -17.47333 | 669 ft | 138 kts | 354° |
| 2026-04-18 09:02 | 14.70962 | -17.47453 | 498 ft | 138 kts | 353° |
| 2026-04-18 09:02 | 14.71919 | -17.47602 | 286 ft | 138 kts | 351° |
| 2026-04-18 09:03 | 14.72892 | -17.47731 | 101 ft | 137 kts | 352° |
| 2026-04-18 09:03 | 14.73789 | -17.47852 | 100 ft | 119 kts | 353° |
| 2026-04-18 09:03 | 14.74394 | -17.47931 | 98 ft | 54 kts | 352° |
| 2026-04-18 09:03 | 14.74768 | -17.47983 | 99 ft | 53 kts | 351° |
| 2026-04-18 09:04 | 14.75078 | -17.48026 | 97 ft | 34 kts | 352° |
| 2026-04-18 09:04 | 14.75186 | -17.48056 | 95 ft | 11 kts | 74° |
| 2026-04-18 09:04 | 14.75138 | -17.48030 | 96 ft | 11 kts | 167° |
| 2026-04-18 09:04 | 14.74968 | -17.48010 | 99 ft | 34 kts | 174° |
| 2026-04-18 09:05 | 14.74690 | -17.47976 | 99 ft | 41 kts | 171° |
| 2026-04-18 09:05 | 14.74416 | -17.47941 | 98 ft | 30 kts | 199° |
| 2026-04-18 09:05 | 14.74346 | -17.48128 | 96 ft | 29 kts | 260° |
| 2026-04-18 09:05 | 14.74307 | -17.48338 | 95 ft | 30 kts | 258° |
| 2026-04-18 09:06 | 14.74274 | -17.48504 | 94 ft | 15 kts | 258° |
| 2026-04-18 09:06 | 14.74285 | -17.48624 | 92 ft | 22 kts | 285° |
| 2026-04-18 09:06 | 14.74318 | -17.48742 | 90 ft | 8 kts | 286° |
| 2026-04-18 09:06 | 14.74320 | -17.48785 | 90 ft | 5 kts | 233° |
| 2026-04-18 09:07 | 14.74292 | -17.48801 | 89 ft | 4 kts | 197° |
| 2026-04-18 09:07 | 14.74265 | -17.48809 | 89 ft | 3 kts | 196° |